Time;durP1;ratioP1;P1;durP2;ratioP2;P2;SDS_P1;SDS_P2;PMS_P1;PMS_P2;Temp;Humidity;BMP_temperature;BMP_pressure;BME280_temperature;BME280_humidity;BME280_pressure;Samples;Min_cycle;Max_cycle;Signal;HPM_P1;HPM_P2
2023/10/19 00:00:40;;;;;;;3.95;3.78;;;;;;;;;;4230652;28;21080;-69
2023/10/19 00:02:42;;;;;;;4.43;4.18;;;;;;;;;;4230738;28;20050;-68
2023/10/19 00:04:44;;;;;;;5.38;5.05;;;;;;;;;;4230543;28;20066;-69
2023/10/19 00:06:48;;;;;;;4.72;3.80;;;;;;;;;;4230813;28;20093;-69
2023/10/19 00:08:52;;;;;;;4.72;4.28;;;;;;;;;;4230682;28;20119;-69
2023/10/19 00:11:07;;;;;;;4.43;4.25;;;;;;;;;;4230364;28;20036;-69
2023/10/19 00:13:11;;;;;;;4.38;4.18;;;;;;;;;;4230585;28;20046;-69
2023/10/19 00:15:14;;;;;;;5.50;5.20;;;;;;;;;;4215042;28;20097;-69
2023/10/19 00:17:18;;;;;;;5.15;5.03;;;;;;;;;;4213435;28;20381;-69
2023/10/19 00:19:21;;;;;;;6.60;5.97;;;;;;;;;;4213957;28;20048;-69
2023/10/19 00:21:27;;;;;;;5.22;5.13;;;;;;;;;;4213651;28;20071;-69
2023/10/19 00:23:35;;;;;;;5.13;4.68;;;;;;;;;;4227577;28;20039;-69
2023/10/19 00:25:41;;;;;;;5.93;5.45;;;;;;;;;;4230363;28;20081;-69
2023/10/19 00:27:43;;;;;;;6.05;4.63;;;;;;;;;;4230333;28;20035;-69
2023/10/19 00:29:55;;;;;;;4.95;4.55;;;;;;;;;;4230638;28;20040;-69
2023/10/19 00:31:58;;;;;;;4.85;4.55;;;;;;;;;;4230032;28;20079;-69
2023/10/19 00:34:00;;;;;;;5.18;4.88;;;;;;;;;;4230311;28;20040;-69
2023/10/19 00:36:09;;;;;;;4.63;4.25;;;;;;;;;;4230364;28;20039;-69
2023/10/19 00:40:34;;;;;;;4.38;4.28;;;;;;;;;;4230015;28;20580;-69
2023/10/19 00:42:42;;;;;;;4.57;4.35;;;;;;;;;;4224643;28;20040;-69
2023/10/19 00:44:50;;;;;;;5.43;5.13;;;;;;;;;;4213396;28;20044;-69
2023/10/19 00:47:03;;;;;;;6.75;6.03;;;;;;;;;;4223973;28;20050;-69
2023/10/19 00:49:06;;;;;;;5.25;4.82;;;;;;;;;;4233595;28;20074;-70
2023/10/19 00:51:22;;;;;;;4.35;4.03;;;;;;;;;;4233797;27;20047;-69
2023/10/19 00:53:26;;;;;;;4.72;4.53;;;;;;;;;;4233519;28;20044;-69
2023/10/19 00:55:28;;;;;;;5.90;4.20;;;;;;;;;;4233691;28;20063;-68
2023/10/19 00:57:34;;;;;;;4.90;4.53;;;;;;;;;;4233598;28;20123;-69
2023/10/19 01:00:11;;;;;;;6.40;6.10;;;;;;;;;;4233495;28;20375;-69
2023/10/19 01:02:16;;;;;;;5.70;5.30;;;;;;;;;;4251540;22;20837;-81
2023/10/19 01:04:22;;;;;;;6.88;6.32;;;;;;;;;;4200138;28;20483;-81
2023/10/19 01:06:25;;;;;;;7.53;7.13;;;;;;;;;;4182257;28;20115;-80
2023/10/19 01:08:32;;;;;;;;;;;;;;;;;;4199054;28;20474;-80
2023/10/19 01:10:35;;;;;;;7.25;6.68;;;;;;;;;;4181900;28;19920;-81
2023/10/19 01:12:40;;;;;;;8.25;7.85;;;;;;;;;;4198840;28;20116;-81
2023/10/19 01:14:42;;;;;;;22.55;7.68;;;;;;;;;;4181841;28;20051;-81
2023/10/19 01:16:45;;;;;;;8.82;8.27;;;;;;;;;;4199939;28;20771;-81
2023/10/19 01:18:48;;;;;;;24.35;9.80;;;;;;;;;;4198707;28;20032;-80
2023/10/19 01:20:50;;;;;;;9.55;8.88;;;;;;;;;;4199473;28;20047;-80
2023/10/19 01:25:12;;;;;;;8.50;8.07;;;;;;;;;;4199811;28;20037;-78
2023/10/19 01:27:14;;;;;;;8.38;8.00;;;;;;;;;;4181617;28;20045;-78
2023/10/19 01:29:17;;;;;;;8.45;8.20;;;;;;;;;;4181782;28;20458;-78
2023/10/19 01:33:32;;;;;;;8.52;7.93;;;;;;;;;;4199363;28;20040;-78
2023/10/19 01:37:54;;;;;;;8.95;8.27;;;;;;;;;;4199283;28;20048;-80
2023/10/19 01:39:56;;;;;;;8.90;8.17;;;;;;;;;;4180979;28;20083;-80
2023/10/19 01:41:58;;;;;;;8.18;7.90;;;;;;;;;;4181900;28;20333;-81
2023/10/19 01:44:06;;;;;;;7.70;7.60;;;;;;;;;;4203664;28;20123;-81
2023/10/19 01:46:11;;;;;;;8.30;8.02;;;;;;;;;;4199199;28;20040;-81
2023/10/19 01:48:15;;;;;;;8.38;7.78;;;;;;;;;;4181411;28;20044;-81
2023/10/19 01:50:19;;;;;;;7.28;7.03;;;;;;;;;;4199037;28;20094;-81
2023/10/19 01:52:24;;;;;;;7.57;6.97;;;;;;;;;;4197840;28;20047;-81
2023/10/19 01:54:26;;;;;;;8.77;8.35;;;;;;;;;;4199083;28;20036;-80
2023/10/19 01:56:28;;;;;;;7.68;6.97;;;;;;;;;;4198925;28;20044;-80
2023/10/19 01:58:30;;;;;;;6.03;5.85;;;;;;;;;;4198496;28;20047;-81
2023/10/19 02:00:31;;;;;;;8.25;7.65;;;;;;;;;;4199080;28;20446;-81
2023/10/19 02:02:35;;;;;;;7.75;7.10;;;;;;;;;;4197476;28;20052;-81
2023/10/19 02:04:37;;;;;;;7.93;7.53;;;;;;;;;;4198989;28;20044;-80
2023/10/19 02:06:46;;;;;;;7.45;7.15;;;;;;;;;;4199077;28;20110;-78
2023/10/19 02:08:51;;;;;;;6.75;6.35;;;;;;;;;;4197725;28;20092;-77
2023/10/19 02:10:53;;;;;;;7.22;6.93;;;;;;;;;;4198645;28;20123;-79
2023/10/19 02:12:55;;;;;;;9.45;8.93;;;;;;;;;;4181058;28;20475;-78
2023/10/19 02:14:57;;;;;;;9.20;8.68;;;;;;;;;;4180967;28;20115;-77
2023/10/19 02:17:00;;;;;;;9.35;9.00;;;;;;;;;;4198571;28;20101;-78
2023/10/19 02:19:02;;;;;;;10.23;9.60;;;;;;;;;;4198717;28;20102;-78
2023/10/19 02:21:06;;;;;;;8.73;8.55;;;;;;;;;;4198665;28;20097;-78
2023/10/19 02:23:07;;;;;;;8.35;8.10;;;;;;;;;;4198661;28;20048;-77
2023/10/19 02:25:11;;;;;;;9.93;9.55;;;;;;;;;;4198645;28;20044;-79
2023/10/19 02:27:12;;;;;;;9.73;9.32;;;;;;;;;;4180855;28;20098;-78
2023/10/19 02:29:33;;;;;;;10.05;9.40;;;;;;;;;;4180786;28;20049;-77
2023/10/19 02:31:39;;;;;;;9.68;8.95;;;;;;;;;;4198204;28;20045;-78
2023/10/19 02:33:51;;;;;;;9.48;8.95;;;;;;;;;;4180603;28;20076;-78
2023/10/19 02:35:57;;;;;;;9.32;8.85;;;;;;;;;;4198638;28;20037;-78
2023/10/19 02:37:58;;;;;;;8.35;7.90;;;;;;;;;;4197315;28;20052;-77
2023/10/19 02:40:00;;;;;;;7.88;7.68;;;;;;;;;;4197825;28;20043;-77
2023/10/19 02:42:02;;;;;;;8.55;7.72;;;;;;;;;;4199171;28;20040;-78
2023/10/19 02:44:14;;;;;;;7.35;7.07;;;;;;;;;;4197140;28;20098;-78
2023/10/19 02:46:17;;;;;;;7.00;6.72;;;;;;;;;;4194478;28;20040;-78
2023/10/19 02:48:19;;;;;;;7.13;6.57;;;;;;;;;;4180796;28;20037;-77
2023/10/19 02:50:23;;;;;;;6.82;6.20;;;;;;;;;;4196939;28;20044;-78
2023/10/19 02:52:24;;;;;;;6.93;6.68;;;;;;;;;;4198136;28;20429;-78
2023/10/19 02:54:27;;;;;;;9.23;7.35;;;;;;;;;;4180465;28;20039;-78
2023/10/19 02:56:35;;;;;;;7.88;7.30;;;;;;;;;;4198381;28;20617;-78
2023/10/19 02:58:37;;;;;;;8.27;6.82;;;;;;;;;;4198225;28;20390;-78
2023/10/19 03:00:39;;;;;;;8.38;6.43;;;;;;;;;;4197916;28;20376;-78
2023/10/19 03:02:41;;;;;;;7.85;7.53;;;;;;;;;;4197831;28;20075;-77
2023/10/19 03:04:43;;;;;;;7.13;6.55;;;;;;;;;;4198002;28;20044;-78
2023/10/19 03:06:45;;;;;;;6.53;6.15;;;;;;;;;;4180241;28;20045;-78
2023/10/19 03:08:47;;;;;;;10.32;6.95;;;;;;;;;;4180208;28;20052;-78
2023/10/19 03:11:03;;;;;;;7.82;7.28;;;;;;;;;;4197582;28;20040;-77
2023/10/19 03:13:05;;;;;;;7.93;7.13;;;;;;;;;;4180157;28;20087;-78
2023/10/19 03:15:08;;;;;;;7.78;7.13;;;;;;;;;;4198081;28;20055;-77
2023/10/19 03:17:10;;;;;;;8.25;7.72;;;;;;;;;;4197772;28;20040;-78
2023/10/19 03:19:13;;;;;;;;;;;;;;;;;;4180343;28;20460;-78
2023/10/19 03:21:16;;;;;;;8.07;7.45;;;;;;;;;;4197718;28;19951;-78
2023/10/19 03:23:17;;;;;;;6.82;6.43;;;;;;;;;;4163355;28;20513;-77
2023/10/19 03:27:40;;;;;;;8.23;7.78;;;;;;;;;;4197690;28;20045;-78
2023/10/19 03:29:45;;;;;;;8.77;7.97;;;;;;;;;;4179484;28;20060;-78
2023/10/19 03:31:47;;;;;;;7.97;7.38;;;;;;;;;;4179808;28;20377;-78
2023/10/19 03:33:59;;;;;;;10.63;7.13;;;;;;;;;;4197347;28;20484;-78
2023/10/19 03:36:00;;;;;;;7.53;7.13;;;;;;;;;;4179789;28;20049;-78
2023/10/19 03:38:07;;;;;;;9.65;8.77;;;;;;;;;;4179588;28;20099;-79
2023/10/19 03:40:15;;;;;;;10.27;9.63;;;;;;;;;;4179322;28;20092;-78
2023/10/19 03:42:16;;;;;;;10.35;10.00;;;;;;;;;;4182351;28;20144;-78
2023/10/19 03:44:32;;;;;;;11.18;10.45;;;;;;;;;;4214186;28;20040;-77
2023/10/19 03:46:37;;;;;;;8.63;8.18;;;;;;;;;;4191165;28;20037;-78
2023/10/19 03:48:39;;;;;;;8.52;8.13;;;;;;;;;;4179666;28;20037;-78
2023/10/19 03:50:42;;;;;;;8.43;8.13;;;;;;;;;;4162919;28;20046;-78
2023/10/19 03:52:45;;;;;;;7.25;6.95;;;;;;;;;;4179468;28;20044;-78
2023/10/19 03:54:47;;;;;;;7.93;7.63;;;;;;;;;;4180763;28;20115;-78
2023/10/19 03:56:50;;;;;;;8.07;7.88;;;;;;;;;;4179394;28;20041;-78
2023/10/19 03:58:52;;;;;;;6.68;6.55;;;;;;;;;;4183652;28;20040;-77
2023/10/19 04:00:54;;;;;;;7.93;7.47;;;;;;;;;;4213866;28;20139;-78
2023/10/19 04:02:58;;;;;;;7.70;7.30;;;;;;;;;;4213648;28;20450;-78
2023/10/19 04:05:01;;;;;;;7.55;7.07;;;;;;;;;;4179335;28;20044;-78
2023/10/19 04:07:11;;;;;;;8.13;7.68;;;;;;;;;;4194059;28;20376;-78
2023/10/19 04:09:16;;;;;;;6.95;6.35;;;;;;;;;;4179065;28;20094;-78
2023/10/19 04:11:21;;;;;;;7.30;6.53;;;;;;;;;;4196314;28;20041;-78
2023/10/19 04:13:23;;;;;;;6.50;6.13;;;;;;;;;;4196516;28;20128;-78
2023/10/19 04:15:26;;;;;;;6.20;5.72;;;;;;;;;;4196040;28;20430;-78
2023/10/19 04:17:28;;;;;;;5.05;4.85;;;;;;;;;;4179266;28;20060;-78
2023/10/19 04:19:30;;;;;;;5.25;4.75;;;;;;;;;;4195670;28;20131;-78
2023/10/19 04:21:31;;;;;;;9.48;5.65;;;;;;;;;;4196582;28;20054;-78
2023/10/19 04:23:34;;;;;;;9.98;5.97;;;;;;;;;;4197166;28;20044;-78
2023/10/19 04:25:37;;;;;;;5.25;5.00;;;;;;;;;;4195516;28;20098;-80
2023/10/19 04:27:39;;;;;;;;;;;;;;;;;;4179710;28;20095;-81
2023/10/19 04:29:43;;;;;;;7.68;7.20;;;;;;;;;;4196043;28;19926;-80
2023/10/19 04:31:54;;;;;;;6.78;6.40;;;;;;;;;;4196861;28;20045;-81
2023/10/19 04:33:56;;;;;;;7.75;6.97;;;;;;;;;;4191489;28;20043;-80
2023/10/19 04:36:00;;;;;;;7.63;7.00;;;;;;;;;;4155896;28;20056;-81
2023/10/19 04:38:03;;;;;;;6.82;6.63;;;;;;;;;;4195425;28;20048;-81
2023/10/19 04:40:07;;;;;;;7.40;7.20;;;;;;;;;;4196195;28;20051;-81
2023/10/19 04:42:09;;;;;;;6.70;6.35;;;;;;;;;;4191957;28;20086;-81
2023/10/19 04:44:10;;;;;;;5.97;5.68;;;;;;;;;;4174436;28;20041;-80
2023/10/19 04:46:12;;;;;;;5.75;5.45;;;;;;;;;;4194325;28;20761;-80
2023/10/19 04:48:14;;;;;;;7.80;6.18;;;;;;;;;;4180039;28;20048;-81
2023/10/19 04:50:16;;;;;;;5.63;5.15;;;;;;;;;;4178803;28;20599;-80
2023/10/19 04:52:17;;;;;;;7.10;6.65;;;;;;;;;;4189447;28;20053;-81
2023/10/19 04:54:19;;;;;;;8.38;5.97;;;;;;;;;;4196547;28;20028;-80
2023/10/19 04:56:21;;;;;;;6.53;6.07;;;;;;;;;;4196670;28;20381;-80
2023/10/19 04:58:28;;;;;;;5.82;5.30;;;;;;;;;;4196799;28;20041;-80
2023/10/19 05:00:30;;;;;;;7.18;6.30;;;;;;;;;;4196591;28;20045;-81
2023/10/19 05:02:31;;;;;;;8.27;6.25;;;;;;;;;;4195113;28;20056;-81
2023/10/19 05:04:35;;;;;;;7.05;6.65;;;;;;;;;;4178629;28;20103;-80
2023/10/19 05:06:38;;;;;;;6.47;5.90;;;;;;;;;;4180037;28;20419;-80
2023/10/19 05:08:40;;;;;;;6.05;5.60;;;;;;;;;;4178816;28;20063;-81
2023/10/19 05:10:42;;;;;;;6.93;6.43;;;;;;;;;;4179932;28;20041;-80
2023/10/19 05:12:44;;;;;;;6.22;5.93;;;;;;;;;;4179889;28;20041;-81
2023/10/19 05:14:48;;;;;;;7.67;7.37;;;;;;;;;;4180181;28;20087;-88
2023/10/19 05:16:50;;;;;;;7.88;7.55;;;;;;;;;;4179772;28;20310;-88
2023/10/19 05:18:52;;;;;;;8.52;7.95;;;;;;;;;;4180125;28;20041;-88
2023/10/19 05:20:56;;;;;;;10.50;7.20;;;;;;;;;;4162367;28;20037;-88
2023/10/19 05:22:57;;;;;;;6.50;6.22;;;;;;;;;;4179890;28;20374;-88
2023/10/19 05:25:01;;;;;;;7.78;7.57;;;;;;;;;;4179893;28;20041;-88
2023/10/19 05:27:03;;;;;;;6.57;6.25;;;;;;;;;;4180102;28;20087;-88
2023/10/19 05:29:05;;;;;;;;;;;;;;;;;;4162464;28;20052;-88
2023/10/19 05:31:06;;;;;;;9.20;6.78;;;;;;;;;;4177729;28;19921;-88
2023/10/19 05:33:08;;;;;;;6.10;5.68;;;;;;;;;;4182340;28;20033;-88
2023/10/19 05:35:13;;;;;;;6.60;6.25;;;;;;;;;;4167728;28;20041;-91
2023/10/19 05:37:16;;;;;;;7.00;6.32;;;;;;;;;;4166274;28;20038;-91
2023/10/19 05:39:17;;;;;;;6.70;6.05;;;;;;;;;;4174950;28;20459;-91
2023/10/19 05:41:21;;;;;;;6.63;6.22;;;;;;;;;;4183028;28;20033;-92
2023/10/19 05:43:22;;;;;;;6.43;5.95;;;;;;;;;;4181168;28;20532;-92
2023/10/19 05:45:24;;;;;;;7.38;6.57;;;;;;;;;;4181187;28;20143;-92
2023/10/19 05:47:26;;;;;;;7.07;6.78;;;;;;;;;;4193025;28;20029;-96
2023/10/19 05:49:29;;;;;;;8.02;7.53;;;;;;;;;;4181338;28;20049;-96
2023/10/19 05:51:32;;;;;;;15.93;14.52;;;;;;;;;;4178209;28;20091;-95
2023/10/19 05:53:37;;;;;;;9.80;8.93;;;;;;;;;;4181027;28;20026;-93
2023/10/19 05:55:43;;;;;;;7.03;6.72;;;;;;;;;;4198280;28;20041;-95
2023/10/19 05:57:47;;;;;;;9.00;8.20;;;;;;;;;;4181752;28;20038;-93
2023/10/19 05:59:54;;;;;;;5.95;5.47;;;;;;;;;;4182350;28;20033;-95
2023/10/19 06:01:57;;;;;;;8.18;7.78;;;;;;;;;;4167616;28;20037;-96
2023/10/19 06:04:02;;;;;;;6.78;6.38;;;;;;;;;;4167168;28;20078;-96
2023/10/19 06:06:06;;;;;;;7.55;7.05;;;;;;;;;;4165992;28;20062;-96
2023/10/19 06:08:08;;;;;;;7.05;6.75;;;;;;;;;;4148965;28;20050;-96
2023/10/19 06:10:18;;;;;;;6.63;6.32;;;;;;;;;;4150603;28;20034;-95
2023/10/19 06:12:22;;;;;;;6.80;6.18;;;;;;;;;;4149896;28;20114;-94
2023/10/19 06:14:30;;;;;;;7.05;6.65;;;;;;;;;;4148349;28;20050;-95
2023/10/19 06:16:33;;;;;;;6.75;6.43;;;;;;;;;;4147838;28;20656;-96
2023/10/19 06:18:36;;;;;;;6.20;5.72;;;;;;;;;;4164938;28;20069;-96
2023/10/19 06:20:47;;;;;;;6.82;6.55;;;;;;;;;;4118742;28;20054;-96
2023/10/19 06:22:54;;;;;;;6.20;5.90;;;;;;;;;;4149360;28;20034;-96
2023/10/19 06:24:56;;;;;;;7.10;6.60;;;;;;;;;;4115518;28;20047;-96
2023/10/19 06:26:59;;;;;;;6.97;6.57;;;;;;;;;;4145851;28;20042;-96
2023/10/19 06:29:03;;;;;;;7.18;6.68;;;;;;;;;;4133332;28;20047;-96
2023/10/19 06:31:09;;;;;;;9.93;8.93;;;;;;;;;;4142192;28;20090;-96
2023/10/19 06:33:17;;;;;;;7.47;7.07;;;;;;;;;;4150812;28;20027;-95
2023/10/19 06:35:24;;;;;;;13.63;7.82;;;;;;;;;;4149238;28;20030;-96
2023/10/19 06:37:27;;;;;;;7.53;7.10;;;;;;;;;;4132658;28;20082;-96
2023/10/19 06:39:30;;;;;;;8.00;7.40;;;;;;;;;;4151837;28;20022;-96
2023/10/19 06:41:40;;;;;;;7.75;7.35;;;;;;;;;;4163907;28;20062;-96
2023/10/19 06:43:44;;;;;;;9.75;7.60;;;;;;;;;;4165383;28;20049;-95
2023/10/19 06:45:46;;;;;;;9.13;6.78;;;;;;;;;;4172161;28;20052;-92
2023/10/19 06:47:49;;;;;;;7.80;7.25;;;;;;;;;;4182047;28;20033;-91
2023/10/19 06:49:51;;;;;;;7.57;6.95;;;;;;;;;;4182036;28;20029;-91
2023/10/19 06:51:53;;;;;;;8.25;7.72;;;;;;;;;;4180903;28;20052;-91
2023/10/19 06:53:55;;;;;;;8.20;7.53;;;;;;;;;;4180454;28;20041;-92
2023/10/19 06:55:57;;;;;;;7.65;6.95;;;;;;;;;;4164036;28;20064;-90
2023/10/19 06:57:59;;;;;;;7.53;6.93;;;;;;;;;;4165568;28;20049;-91
2023/10/19 07:00:10;;;;;;;6.93;6.18;;;;;;;;;;4180622;28;20065;-91
2023/10/19 07:02:12;;;;;;;14.48;6.25;;;;;;;;;;4168982;28;20401;-91
2023/10/19 07:04:14;;;;;;;7.38;6.88;;;;;;;;;;4163995;28;20041;-91
2023/10/19 07:06:16;;;;;;;7.70;7.22;;;;;;;;;;4181837;28;20120;-91
2023/10/19 07:08:19;;;;;;;11.35;6.47;;;;;;;;;;4181887;28;20041;-91
2023/10/19 07:10:21;;;;;;;7.30;6.72;;;;;;;;;;4181576;28;20037;-92
2023/10/19 07:12:23;;;;;;;7.60;6.70;;;;;;;;;;4163771;28;20053;-91
2023/10/19 07:14:25;;;;;;;5.68;5.40;;;;;;;;;;4180136;28;20072;-92
2023/10/19 07:16:26;;;;;;;5.50;5.15;;;;;;;;;;4164086;28;20059;-92
2023/10/19 07:18:28;;;;;;;10.23;6.65;;;;;;;;;;4163780;28;20068;-92
2023/10/19 07:20:35;;;;;;;7.43;6.45;;;;;;;;;;4163900;28;20095;-92
2023/10/19 07:22:42;;;;;;;7.28;6.57;;;;;;;;;;4173754;28;20075;-91
2023/10/19 07:24:44;;;;;;;8.35;7.68;;;;;;;;;;4180242;28;20044;-91
2023/10/19 07:27:04;;;;;;;6.93;6.07;;;;;;;;;;4180269;28;20045;-91
2023/10/19 07:29:10;;;;;;;7.38;6.78;;;;;;;;;;4180314;28;20045;-92
2023/10/19 07:31:15;;;;;;;7.53;6.88;;;;;;;;;;4179970;28;20045;-91
2023/10/19 07:33:17;;;;;;;9.98;6.85;;;;;;;;;;4163374;28;20050;-91
2023/10/19 07:35:19;;;;;;;11.98;6.32;;;;;;;;;;4197795;28;20115;-91
2023/10/19 07:37:21;;;;;;;8.00;7.35;;;;;;;;;;4197939;28;20052;-91
2023/10/19 07:39:23;;;;;;;7.50;6.82;;;;;;;;;;4189191;28;20063;-92
2023/10/19 07:41:26;;;;;;;9.13;6.78;;;;;;;;;;4196569;28;20036;-91
2023/10/19 07:43:28;;;;;;;13.30;7.10;;;;;;;;;;4213791;28;20040;-91
2023/10/19 07:45:34;;;;;;;9.93;7.88;;;;;;;;;;4179896;28;20044;-91
2023/10/19 07:47:36;;;;;;;7.07;6.72;;;;;;;;;;4176390;28;20133;-91
2023/10/19 07:49:38;;;;;;;8.10;7.28;;;;;;;;;;4179539;28;20064;-91
2023/10/19 07:51:44;;;;;;;8.90;7.80;;;;;;;;;;4179757;28;20041;-91
2023/10/19 07:53:46;;;;;;;9.30;8.15;;;;;;;;;;4195564;28;20041;-91
2023/10/19 07:55:47;;;;;;;8.15;7.57;;;;;;;;;;4163565;28;20056;-96
2023/10/19 07:57:50;;;;;;;9.10;7.97;;;;;;;;;;4183266;28;20037;-96
2023/10/19 07:59:52;;;;;;;;;;;;;;;;;;4169917;28;20045;-96
2023/10/19 08:01:53;;;;;;;7.60;7.00;;;;;;;;;;4202637;28;19975;-96
2023/10/19 08:03:59;;;;;;;7.80;6.13;;;;;;;;;;4184612;28;20049;-96
2023/10/19 08:06:01;;;;;;;6.88;6.28;;;;;;;;;;4185946;28;20476;-96
2023/10/19 08:08:06;;;;;;;6.18;5.53;;;;;;;;;;4185569;28;20131;-96
2023/10/19 08:10:10;;;;;;;7.93;6.88;;;;;;;;;;4183280;28;20049;-96
2023/10/19 08:12:13;;;;;;;6.57;6.00;;;;;;;;;;4165624;28;20075;-96
2023/10/19 08:14:15;;;;;;;6.75;6.10;;;;;;;;;;4180111;28;20237;-96
2023/10/19 08:16:17;;;;;;;9.55;8.13;;;;;;;;;;4166505;28;20041;-95
2023/10/19 08:18:20;;;;;;;8.02;6.82;;;;;;;;;;4197886;28;20045;-96
2023/10/19 08:20:30;;;;;;;9.50;7.60;;;;;;;;;;4163005;28;20091;-96
2023/10/19 08:22:32;;;;;;;8.70;7.20;;;;;;;;;;4197304;28;20098;-91
2023/10/19 08:24:35;;;;;;;11.85;6.88;;;;;;;;;;4196941;28;20119;-93
2023/10/19 08:26:39;;;;;;;10.55;7.72;;;;;;;;;;4179700;28;20072;-95
2023/10/19 08:28:40;;;;;;;8.05;7.25;;;;;;;;;;4162705;28;20115;-95
2023/10/19 08:30:44;;;;;;;8.73;7.95;;;;;;;;;;4162599;28;20084;-95
2023/10/19 08:32:47;;;;;;;9.85;8.88;;;;;;;;;;4163048;28;20105;-95
2023/10/19 08:34:49;;;;;;;11.43;8.18;;;;;;;;;;4162804;28;20485;-95
2023/10/19 08:36:51;;;;;;;9.27;8.15;;;;;;;;;;4163232;28;20065;-94
2023/10/19 08:38:53;;;;;;;10.13;7.43;;;;;;;;;;4173964;28;20082;-93
2023/10/19 08:40:55;;;;;;;12.15;7.43;;;;;;;;;;4195639;28;20064;-93
2023/10/19 08:42:58;;;;;;;7.07;5.97;;;;;;;;;;4213652;28;20089;-95
2023/10/19 08:45:00;;;;;;;12.93;7.43;;;;;;;;;;4166456;28;20064;-95
2023/10/19 08:47:05;;;;;;;5.57;5.30;;;;;;;;;;4178847;28;20048;-95
2023/10/19 08:49:10;;;;;;;8.10;5.85;;;;;;;;;;4162458;28;20045;-92
2023/10/19 08:51:12;;;;;;;8.55;6.63;;;;;;;;;;4180740;28;20045;-93
2023/10/19 08:53:19;;;;;;;9.75;6.28;;;;;;;;;;4162942;28;20571;-95
2023/10/19 08:55:21;;;;;;;9.18;5.97;;;;;;;;;;4146239;28;20136;-95
2023/10/19 08:57:42;;;;;;;8.32;6.30;;;;;;;;;;4179487;28;20033;-96
2023/10/19 08:59:46;;;;;;;7.47;5.85;;;;;;;;;;4146225;28;20133;-95
2023/10/19 09:01:49;;;;;;;6.97;6.22;;;;;;;;;;4162396;28;20037;-94
2023/10/19 09:03:51;;;;;;;6.85;6.18;;;;;;;;;;4178929;28;20530;-95
2023/10/19 09:05:53;;;;;;;8.68;5.20;;;;;;;;;;4187451;23;20123;-66
2023/10/19 09:07:55;;;;;;;9.48;6.45;;;;;;;;;;4166589;28;20042;-66
2023/10/19 09:09:57;;;;;;;10.48;6.68;;;;;;;;;;4166743;28;20041;-66
2023/10/19 09:11:59;;;;;;;12.63;7.25;;;;;;;;;;4166753;28;20068;-66
2023/10/19 09:14:01;;;;;;;7.85;6.80;;;;;;;;;;4166765;28;20519;-66
2023/10/19 09:16:04;;;;;;;14.60;7.82;;;;;;;;;;4166725;28;20091;-66
2023/10/19 09:18:16;;;;;;;21.95;8.50;;;;;;;;;;4166664;28;20459;-66
2023/10/19 09:20:27;;;;;;;13.48;7.95;;;;;;;;;;4166750;28;20049;-66
2023/10/19 09:22:36;;;;;;;9.48;7.03;;;;;;;;;;4166551;28;20038;-66
2023/10/19 09:24:38;;;;;;;8.15;7.45;;;;;;;;;;4166580;28;20063;-66
2023/10/19 09:26:40;;;;;;;11.50;7.95;;;;;;;;;;4166578;28;20037;-66
2023/10/19 09:28:41;;;;;;;7.10;6.50;;;;;;;;;;4166553;28;20041;-66
2023/10/19 09:30:44;;;;;;;11.30;7.28;;;;;;;;;;4181569;28;20040;-66
2023/10/19 09:32:45;;;;;;;;;;;;;;;;;;4166873;28;20053;-66
2023/10/19 09:34:47;;;;;;;11.65;7.78;;;;;;;;;;4166246;28;19929;-66
2023/10/19 09:36:49;;;;;;;7.25;6.55;;;;;;;;;;4166254;28;20083;-66
2023/10/19 09:38:51;;;;;;;16.52;8.25;;;;;;;;;;4166300;28;20048;-66
2023/10/19 09:40:54;;;;;;;;;;;;;;;;;;4166871;28;20137;-66
2023/10/19 09:42:57;;;;;;;9.43;7.95;;;;;;;;;;4162753;28;19925;-67
2023/10/19 09:45:05;;;;;;;11.93;6.75;;;;;;;;;;4164412;28;20041;-66
2023/10/19 09:47:12;;;;;;;13.75;7.10;;;;;;;;;;4164053;28;20083;-66
2023/10/19 09:49:14;;;;;;;7.38;5.30;;;;;;;;;;4162826;28;20053;-66
2023/10/19 09:51:17;;;;;;;12.02;5.95;;;;;;;;;;4165101;28;20041;-66
2023/10/19 09:53:19;;;;;;;11.63;5.30;;;;;;;;;;4165138;28;20397;-66
2023/10/19 09:55:31;;;;;;;7.00;3.95;;;;;;;;;;4165818;28;20579;-66
2023/10/19 09:57:53;;;;;;;16.30;6.20;;;;;;;;;;4164600;28;20076;-66
2023/10/19 09:59:58;;;;;;;8.15;5.55;;;;;;;;;;4165087;28;20044;-66
2023/10/19 10:02:06;;;;;;;9.25;4.97;;;;;;;;;;4169744;28;20036;-66
2023/10/19 10:04:28;;;;;;;9.55;4.60;;;;;;;;;;4181779;28;20041;-66
2023/10/19 10:06:30;;;;;;;8.60;3.33;;;;;;;;;;4173809;28;20053;-66
2023/10/19 10:08:32;;;;;;;10.07;4.35;;;;;;;;;;4181221;28;20098;-66
2023/10/19 10:10:34;;;;;;;11.48;3.45;;;;;;;;;;4182177;28;20071;-66
2023/10/19 10:12:36;;;;;;;7.80;3.63;;;;;;;;;;4182378;28;20041;-66
2023/10/19 10:14:38;;;;;;;4.22;3.85;;;;;;;;;;4180668;28;20033;-66
2023/10/19 10:16:40;;;;;;;9.10;3.63;;;;;;;;;;4181587;28;20041;-66
2023/10/19 10:18:44;;;;;;;8.32;3.55;;;;;;;;;;4180145;28;20416;-66
2023/10/19 10:20:47;;;;;;;7.20;4.55;;;;;;;;;;4181429;28;20053;-66
2023/10/19 10:23:16;;;;;;;7.88;3.92;;;;;;;;;;4182186;28;20068;-66
2023/10/19 10:25:30;;;;;;;8.68;4.57;;;;;;;;;;4182135;28;20069;-66
2023/10/19 10:27:33;;;;;;;10.00;3.22;;;;;;;;;;4180968;28;20037;-66
2023/10/19 10:29:35;;;;;;;7.65;4.03;;;;;;;;;;4181455;28;20071;-66
2023/10/19 10:31:41;;;;;;;6.68;3.67;;;;;;;;;;4181984;28;20088;-66
2023/10/19 10:33:46;;;;;;;6.03;2.85;;;;;;;;;;4180950;28;20067;-66
2023/10/19 10:35:54;;;;;;;6.75;3.05;;;;;;;;;;4181020;28;20118;-66
2023/10/19 10:37:56;;;;;;;10.68;3.05;;;;;;;;;;4183245;28;20495;-66
2023/10/19 10:39:59;;;;;;;3.53;1.88;;;;;;;;;;4181819;28;20258;-66
2023/10/19 10:42:05;;;;;;;4.57;2.08;;;;;;;;;;4181007;28;20040;-66
2023/10/19 10:44:07;;;;;;;2.40;1.55;;;;;;;;;;4177968;28;20555;-67
2023/10/19 10:46:09;;;;;;;7.80;2.58;;;;;;;;;;4181530;28;20049;-66
2023/10/19 10:48:11;;;;;;;4.30;1.90;;;;;;;;;;4181804;28;20087;-67
2023/10/19 10:50:19;;;;;;;7.65;2.67;;;;;;;;;;4180050;28;20072;-67
2023/10/19 10:52:24;;;;;;;9.57;2.22;;;;;;;;;;4180510;28;20041;-66
2023/10/19 10:54:26;;;;;;;7.03;2.05;;;;;;;;;;4181498;28;20102;-66
2023/10/19 10:56:28;;;;;;;7.97;2.17;;;;;;;;;;4181556;28;20403;-66
2023/10/19 10:58:30;;;;;;;6.72;2.10;;;;;;;;;;4181599;28;20037;-66
2023/10/19 11:00:34;;;;;;;8.40;2.15;;;;;;;;;;4178613;28;20044;-66
2023/10/19 11:02:36;;;;;;;4.82;1.83;;;;;;;;;;4180283;28;20334;-67
2023/10/19 11:04:43;;;;;;;7.68;2.78;;;;;;;;;;4179405;28;20072;-67
2023/10/19 11:06:49;;;;;;;8.25;2.88;;;;;;;;;;4181370;28;20463;-66
2023/10/19 11:08:50;;;;;;;5.88;1.98;;;;;;;;;;4182166;28;20119;-66
2023/10/19 11:10:52;;;;;;;5.93;1.83;;;;;;;;;;4180447;28;20075;-66
2023/10/19 11:12:54;;;;;;;;;;;;;;;;;;4181603;28;20491;-66
2023/10/19 11:14:58;;;;;;;12.88;2.30;;;;;;;;;;4181153;28;19951;-66
2023/10/19 11:17:15;;;;;;;9.07;1.98;;;;;;;;;;4181264;28;20056;-66
2023/10/19 11:19:17;;;;;;;4.60;2.40;;;;;;;;;;4174812;28;20083;-66
2023/10/19 11:21:19;;;;;;;6.28;1.60;;;;;;;;;;4169749;28;20046;-66
2023/10/19 11:23:34;;;;;;;9.45;2.45;;;;;;;;;;4164676;28;20033;-66
2023/10/19 11:25:35;;;;;;;5.75;1.65;;;;;;;;;;4164682;28;20053;-66
2023/10/19 11:27:37;;;;;;;4.90;1.83;;;;;;;;;;4175277;28;20045;-66
2023/10/19 11:29:52;;;;;;;5.45;1.48;;;;;;;;;;4171371;28;20141;-66
2023/10/19 11:31:59;;;;;;;3.65;1.40;;;;;;;;;;4177217;28;20460;-66
2023/10/19 11:34:01;;;;;;;4.35;1.77;;;;;;;;;;4181032;28;20100;-66
2023/10/19 11:36:03;;;;;;;6.47;1.58;;;;;;;;;;4180878;28;20041;-66
2023/10/19 11:38:05;;;;;;;6.05;2.47;;;;;;;;;;4163384;28;20417;-66
2023/10/19 11:40:07;;;;;;;10.35;1.33;;;;;;;;;;4180105;28;20047;-66
2023/10/19 11:42:09;;;;;;;3.35;1.83;;;;;;;;;;4170536;28;20052;-62
2023/10/19 11:44:11;;;;;;;5.80;2.08;;;;;;;;;;4180711;28;20114;-61
2023/10/19 11:46:14;;;;;;;6.57;2.25;;;;;;;;;;4177448;28;20051;-62
2023/10/19 11:48:16;;;;;;;10.25;2.50;;;;;;;;;;4179289;28;20164;-62
2023/10/19 11:50:19;;;;;;;4.00;1.95;;;;;;;;;;4180686;28;20511;-62
2023/10/19 11:52:20;;;;;;;6.85;2.08;;;;;;;;;;4180817;28;20500;-61
2023/10/19 11:54:22;;;;;;;9.95;2.63;;;;;;;;;;4180675;28;20108;-61
2023/10/19 11:56:25;;;;;;;9.82;2.38;;;;;;;;;;4180604;28;20128;-61
2023/10/19 11:58:27;;;;;;;8.75;2.08;;;;;;;;;;4180689;28;20056;-61
2023/10/19 12:00:37;;;;;;;8.13;2.00;;;;;;;;;;4180822;28;20041;-62
2023/10/19 12:02:41;;;;;;;3.42;1.40;;;;;;;;;;4180611;28;20575;-61
2023/10/19 12:04:42;;;;;;;5.32;2.33;;;;;;;;;;4180526;28;20041;-62
2023/10/19 12:06:47;;;;;;;4.80;2.15;;;;;;;;;;4180459;28;20057;-61
2023/10/19 12:08:49;;;;;;;5.47;2.05;;;;;;;;;;4180544;28;20045;-60
2023/10/19 12:10:50;;;;;;;4.22;1.70;;;;;;;;;;4178872;28;20040;-61
2023/10/19 12:12:52;;;;;;;7.05;2.15;;;;;;;;;;4175484;28;20031;-61
2023/10/19 12:15:05;;;;;;;6.72;1.67;;;;;;;;;;4180459;28;20044;-62
2023/10/19 12:17:07;;;;;;;5.00;1.70;;;;;;;;;;4164095;28;20033;-61
2023/10/19 12:19:09;;;;;;;3.22;1.27;;;;;;;;;;4164065;28;20045;-62
2023/10/19 12:21:14;;;;;;;4.80;1.77;;;;;;;;;;4163955;28;20037;-61
2023/10/19 12:23:16;;;;;;;5.63;1.52;;;;;;;;;;4166421;28;20407;-61
2023/10/19 12:25:17;;;;;;;4.10;1.95;;;;;;;;;;4176737;28;20447;-61
2023/10/19 12:27:19;;;;;;;4.40;1.08;;;;;;;;;;4180425;28;20067;-62
2023/10/19 12:29:21;;;;;;;5.32;0.90;;;;;;;;;;4180329;28;20037;-61
2023/10/19 12:31:23;;;;;;;8.25;1.63;;;;;;;;;;4170796;28;20064;-58
2023/10/19 12:33:26;;;;;;;7.10;1.00;;;;;;;;;;4175149;28;20075;-59
2023/10/19 12:37:51;;;;;;;6.55;1.10;;;;;;;;;;4169462;28;20408;-58